Time;durP1;ratioP1;P1;durP2;ratioP2;P2;SDS_P1;SDS_P2;PMS_P1;PMS_P2;Temp;Humidity;BMP_temperature;BMP_pressure;BME280_temperature;BME280_humidity;BME280_pressure;Samples;Min_cycle;Max_cycle;Signal;HPM_P1;HPM_P2
2023/06/24 00:02:07;;;;;;;10.90;9.80;;;25.40;68.10;;;;;;5034739;28;20112;-54
2023/06/24 00:04:32;;;;;;;11.30;10.10;;;25.40;68.20;;;;;;5034292;28;20045;-54
2023/06/24 00:07:00;;;;;;;11.50;9.73;;;25.40;68.30;;;;;;5034355;28;20032;-54
2023/06/24 00:09:29;;;;;;;11.95;10.75;;;25.30;68.50;;;;;;5034240;28;20080;-54
2023/06/24 00:11:56;;;;;;;12.50;11.20;;;25.30;68.70;;;;;;5034246;28;20028;-54
2023/06/24 00:14:24;;;;;;;13.25;11.85;;;25.30;69.40;;;;;;5034221;28;20111;-52
2023/06/24 00:16:51;;;;;;;12.95;11.65;;;25.20;69.00;;;;;;5034351;28;20029;-54
2023/06/24 00:19:21;;;;;;;14.43;12.95;;;25.20;69.10;;;;;;5034509;28;20029;-54
2023/06/24 00:21:48;;;;;;;13.18;11.77;;;25.20;69.30;;;;;;5034385;28;20029;-54
2023/06/24 00:24:13;;;;;;;13.57;12.23;;;25.10;69.40;;;;;;5034092;28;20048;-53
2023/06/24 00:26:39;;;;;;;13.80;12.45;;;25.10;70.20;;;;;;5034149;28;20461;-55
2023/06/24 00:29:04;;;;;;;14.40;13.00;;;25.00;69.60;;;;;;5033888;28;20056;-54
2023/06/24 00:31:30;;;;;;;14.35;12.85;;;25.00;69.80;;;;;;5034085;28;20037;-54
2023/06/24 00:33:56;;;;;;;14.98;13.27;;;25.00;69.80;;;;;;5034139;28;20034;-53
2023/06/24 00:36:21;;;;;;;15.25;13.00;;;25.00;69.90;;;;;;5034134;28;20468;-54
2023/06/24 00:38:48;;;;;;;14.10;12.65;;;25.00;70.00;;;;;;5032909;28;20374;-54
2023/06/24 00:41:16;;;;;;;13.25;11.95;;;24.90;70.10;;;;;;5034006;28;20472;-54
2023/06/24 00:43:42;;;;;;;13.50;12.20;;;24.90;70.20;;;;;;5033746;28;20104;-52
2023/06/24 00:46:08;;;;;;;14.10;12.60;;;24.80;70.20;;;;;;5033599;28;20108;-54
2023/06/24 00:48:33;;;;;;;14.07;12.38;;;24.80;70.40;;;;;;5033634;28;20040;-49
2023/06/24 00:50:59;;;;;;;12.52;11.30;;;24.80;70.50;;;;;;5033607;28;20032;-52
2023/06/24 00:53:25;;;;;;;12.95;11.65;;;24.80;70.50;;;;;;5033719;28;20034;-52
2023/06/24 00:55:54;;;;;;;12.88;11.52;;;24.80;70.70;;;;;;5033747;28;20037;-53
2023/06/24 00:58:20;;;;;;;13.80;12.50;;;24.80;70.80;;;;;;5033492;28;20017;-54
2023/06/24 01:00:56;;;;;;;13.98;12.57;;;24.70;70.90;;;;;;5033554;28;20032;-52
2023/06/24 01:03:23;;;;;;;15.23;13.00;;;24.70;71.00;;;;;;5033689;28;20033;-54
2023/06/24 01:05:49;;;;;;;13.93;12.23;;;24.70;71.10;;;;;;5033240;28;20076;-53
2023/06/24 01:08:15;;;;;;;14.82;12.77;;;24.70;71.30;;;;;;5033347;28;20022;-54
2023/06/24 01:10:41;;;;;;;15.40;13.10;;;24.70;71.40;;;;;;5033799;28;20040;-53
2023/06/24 01:13:07;;;;;;;13.90;12.23;;;24.60;71.50;;;;;;5033452;28;20109;-54
2023/06/24 01:15:34;;;;;;;15.18;12.88;;;24.60;71.60;;;;;;5033148;28;20568;-54
2023/06/24 01:18:29;;;;;;;13.43;12.13;;;24.60;71.70;;;;;;5033174;28;20018;-54
2023/06/24 01:21:03;;;;;;;15.77;13.55;;;24.60;71.80;;;;;;5033417;28;20025;-53
2023/06/24 01:23:41;;;;;;;14.20;12.80;;;24.60;72.00;;;;;;5032942;28;20051;-53
2023/06/24 01:26:44;;;;;;;14.32;12.82;;;24.60;72.20;;;;;;5032970;28;20083;-53
2023/06/24 01:29:22;;;;;;;13.07;11.68;;;24.50;72.00;;;;;;5032799;28;20044;-54
2023/06/24 01:31:50;;;;;;;13.85;12.48;;;24.50;72.30;;;;;;5033034;28;20449;-52
2023/06/24 01:34:32;;;;;;;13.73;12.32;;;24.50;72.40;;;;;;5032751;28;20033;-52
2023/06/24 01:37:04;;;;;;;13.30;11.90;;;24.50;72.40;;;;;;5032624;28;20487;-54
2023/06/24 01:39:33;;;;;;;15.73;12.48;;;24.50;72.70;;;;;;5032697;28;20032;-50
2023/06/24 01:42:06;;;;;;;13.55;12.15;;;24.50;72.60;;;;;;5032690;28;20022;-54
2023/06/24 01:44:33;;;;;;;13.82;12.32;;;24.50;72.80;;;;;;5032456;28;20113;-53
2023/06/24 01:47:00;;;;;;;14.68;12.68;;;24.50;72.80;;;;;;5030677;28;20017;-54
2023/06/24 01:49:30;;;;;;;15.32;12.57;;;24.50;72.80;;;;;;5032744;28;20025;-54
2023/06/24 01:51:58;;;;;;;14.45;12.98;;;24.50;72.80;;;;;;5032697;28;20473;-54
2023/06/24 01:54:26;;;;;;;14.63;12.70;;;24.50;72.90;;;;;;5031814;28;20017;-54
2023/06/24 01:56:53;;;;;;;15.07;13.25;;;24.50;73.00;;;;;;5032157;28;20051;-54
2023/06/24 01:59:21;;;;;;;14.45;12.65;;;24.50;73.00;;;;;;5032280;28;20075;-54
2023/06/24 02:01:47;;;;;;;14.10;12.60;;;24.50;73.10;;;;;;5032539;28;20029;-55
2023/06/24 02:04:14;;;;;;;16.40;13.05;;;24.40;73.20;;;;;;5032111;28;20049;-54
2023/06/24 02:06:42;;;;;;;13.40;12.02;;;24.50;73.30;;;;;;5032127;28;20026;-53
2023/06/24 02:09:09;;;;;;;14.68;13.18;;;24.50;73.20;;;;;;5032149;28;20132;-51
2023/06/24 02:11:37;;;;;;;15.57;13.98;;;24.50;73.30;;;;;;5031998;28;20477;-51
2023/06/24 02:14:05;;;;;;;14.73;13.27;;;24.50;73.30;;;;;;5032186;28;20489;-52
2023/06/24 02:16:33;;;;;;;15.95;14.35;;;24.50;73.30;;;;;;5031870;28;20033;-53
2023/06/24 02:19:00;;;;;;;17.05;13.18;;;24.50;73.40;;;;;;5031965;28;20018;-54
2023/06/24 02:21:28;;;;;;;16.85;13.20;;;24.50;73.40;;;;;;5031865;28;20013;-54
2023/06/24 02:23:55;;;;;;;15.20;13.60;;;24.50;73.40;;;;;;5031794;28;20060;-50
2023/06/24 02:26:21;;;;;;;15.88;14.25;;;24.50;73.60;;;;;;5031796;28;20152;-51
2023/06/24 02:28:49;;;;;;;15.60;13.98;;;24.50;73.60;;;;;;5031748;28;20029;-53
2023/06/24 02:31:15;;;;;;;15.27;13.68;;;24.50;73.60;;;;;;5031662;28;20029;-54
2023/06/24 02:33:42;;;;;;;16.27;13.85;;;24.50;73.60;;;;;;5031618;28;20033;-54
2023/06/24 02:36:08;;;;;;;15.38;13.57;;;24.50;73.90;;;;;;5031835;28;20060;-54
2023/06/24 02:38:34;;;;;;;14.77;13.27;;;24.50;74.00;;;;;;5031578;28;20052;-54
2023/06/24 02:41:02;;;;;;;14.93;13.35;;;24.50;73.90;;;;;;5031830;28;20060;-53
2023/06/24 02:43:28;;;;;;;14.88;13.27;;;24.40;73.80;;;;;;5031792;28;20032;-54
2023/06/24 02:45:54;;;;;;;15.70;13.75;;;24.50;74.60;;;;;;5031406;28;20025;-54
2023/06/24 02:48:21;;;;;;;14.93;13.05;;;24.50;74.00;;;;;;5031456;28;20040;-54
2023/06/24 02:50:47;;;;;;;16.35;14.13;;;24.50;74.00;;;;;;5031476;28;20075;-54
2023/06/24 02:53:15;;;;;;;15.05;13.43;;;24.50;74.20;;;;;;5031255;28;20385;-54
2023/06/24 02:55:42;;;;;;;15.02;13.45;;;24.40;74.30;;;;;;5031371;28;20029;-54
2023/06/24 02:58:09;;;;;;;16.63;14.20;;;24.50;74.60;;;;;;5031579;28;20033;-51
2023/06/24 03:00:36;;;;;;;15.40;13.80;;;24.50;74.60;;;;;;5031243;28;20160;-54
2023/06/24 03:03:03;;;;;;;15.45;13.77;;;24.50;74.70;;;;;;5030885;28;20540;-53
2023/06/24 03:05:31;;;;;;;17.58;14.55;;;24.50;74.80;;;;;;5031147;28;20060;-54
2023/06/24 03:07:57;;;;;;;18.58;15.35;;;24.50;74.80;;;;;;5031277;28;20048;-54
2023/06/24 03:10:25;;;;;;;19.08;15.20;;;24.50;74.60;;;;;;5031535;28;20026;-54
2023/06/24 03:12:51;;;;;;;18.48;15.98;;;24.40;74.60;;;;;;5031444;28;20029;-51
2023/06/24 03:15:17;;;;;;;17.90;15.70;;;24.40;74.40;;;;;;5031480;28;20032;-54
2023/06/24 03:17:43;;;;;;;18.27;16.27;;;24.50;74.50;;;;;;5031146;28;20100;-53
2023/06/24 03:20:10;;;;;;;19.92;16.15;;;24.50;74.60;;;;;;5031289;28;20031;-54
2023/06/24 03:22:36;;;;;;;19.63;16.20;;;24.50;74.50;;;;;;5031242;28;20022;-54
2023/06/24 03:25:01;;;;;;;17.55;15.73;;;24.60;74.60;;;;;;5031324;28;20520;-52
2023/06/24 03:27:27;;;;;;;16.83;15.02;;;24.60;74.40;;;;;;5031023;28;20079;-55
2023/06/24 03:29:52;;;;;;;15.85;14.15;;;24.80;74.40;;;;;;5031039;28;20026;-55
2023/06/24 03:32:18;;;;;;;15.93;14.18;;;24.90;74.00;;;;;;5031130;28;20068;-54
2023/06/24 03:34:44;;;;;;;16.45;14.32;;;25.10;73.80;;;;;;5030859;28;20041;-54
2023/06/24 03:37:09;;;;;;;13.25;11.95;;;25.30;73.50;;;;;;5031155;28;20049;-55
2023/06/24 03:39:35;;;;;;;15.18;12.35;;;25.50;73.00;;;;;;5030994;28;20026;-54
2023/06/24 03:42:01;;;;;;;17.00;13.32;;;25.70;72.40;;;;;;5031298;28;20241;-55
2023/06/24 03:44:26;;;;;;;14.70;13.20;;;25.90;72.00;;;;;;5030826;28;20065;-54
2023/06/24 03:46:52;;;;;;;14.27;12.65;;;26.00;71.40;;;;;;5030388;28;20492;-53
2023/06/24 03:49:18;;;;;;;14.98;13.15;;;26.20;71.40;;;;;;5028937;28;20520;-54
2023/06/24 03:51:44;;;;;;;14.95;13.32;;;26.30;70.90;;;;;;5029054;28;20100;-52
2023/06/24 03:54:09;;;;;;;13.93;12.50;;;26.40;70.80;;;;;;5029283;28;20021;-55
2023/06/24 03:56:35;;;;;;;16.45;13.20;;;26.40;70.60;;;;;;5028812;28;20064;-52
2023/06/24 03:59:01;;;;;;;14.60;13.07;;;26.40;70.70;;;;;;5029078;28;20025;-53
2023/06/24 04:01:31;;;;;;;15.32;13.05;;;26.50;70.60;;;;;;5029098;28;20100;-52
2023/06/24 04:04:00;;;;;;;14.15;12.60;;;26.60;70.50;;;;;;5030321;28;20106;-54
2023/06/24 04:06:25;;;;;;;15.88;14.10;;;26.70;70.30;;;;;;5031064;28;20080;-52
2023/06/24 04:08:51;;;;;;;14.73;13.07;;;26.80;70.20;;;;;;5030730;28;20033;-55
2023/06/24 04:11:18;;;;;;;14.55;13.05;;;26.90;70.30;;;;;;5030562;28;20030;-53
2023/06/24 04:13:45;;;;;;;16.48;14.77;;;27.20;69.90;;;;;;5030788;28;20057;-54
2023/06/24 04:16:11;;;;;;;17.60;15.05;;;27.30;69.20;;;;;;5034590;28;20033;-54
2023/06/24 04:18:39;;;;;;;15.75;13.88;;;27.40;68.70;;;;;;5034253;28;20118;-53
2023/06/24 04:21:09;;;;;;;16.65;14.65;;;27.60;69.00;;;;;;5034311;28;20084;-55
2023/06/24 04:23:34;;;;;;;16.07;14.37;;;27.90;68.60;;;;;;5034193;28;20028;-54
2023/06/24 04:26:00;;;;;;;16.27;13.63;;;28.60;68.40;;;;;;5033923;28;20396;-55
2023/06/24 04:28:26;;;;;;;15.60;13.90;;;29.50;66.90;;;;;;5033999;28;20034;-55
2023/06/24 04:30:52;;;;;;;13.38;12.02;;;30.50;65.30;;;;;;5034470;28;20074;-55
2023/06/24 04:33:17;;;;;;;13.43;12.02;;;31.50;63.70;;;;;;5034191;28;20488;-56
2023/06/24 04:35:44;;;;;;;12.57;11.30;;;32.60;61.70;;;;;;5033942;28;20061;-56
2023/06/24 04:38:09;;;;;;;12.27;11.07;;;33.40;59.80;;;;;;5033989;28;20392;-56
2023/06/24 04:40:35;;;;;;;12.25;11.13;;;34.20;58.10;;;;;;5033770;28;20097;-56
2023/06/24 04:43:01;;;;;;;12.40;11.18;;;34.50;56.60;;;;;;5033761;28;20032;-56
2023/06/24 04:45:27;;;;;;;11.75;10.65;;;34.40;56.00;;;;;;5033928;28;20125;-56
2023/06/24 04:47:52;;;;;;;12.25;11.05;;;34.00;55.90;;;;;;5033567;28;20063;-56
2023/06/24 04:50:18;;;;;;;12.95;11.55;;;33.50;56.00;;;;;;5032409;28;20389;-53
2023/06/24 04:52:44;;;;;;;13.40;12.00;;;33.10;56.70;;;;;;5031584;28;20030;-54
2023/06/24 04:55:10;;;;;;;14.85;11.90;;;32.60;57.10;;;;;;5031760;28;20064;-55
2023/06/24 04:57:36;;;;;;;15.45;12.30;;;32.20;57.50;;;;;;5031437;28;20053;-56
2023/06/24 05:00:02;;;;;;;13.55;11.70;;;32.10;58.30;;;;;;5031006;28;20029;-53
2023/06/24 05:02:27;;;;;;;13.18;11.85;;;32.50;58.30;;;;;;5031498;28;20028;-56
2023/06/24 05:04:53;;;;;;;13.15;10.80;;;32.90;57.20;;;;;;5030703;28;20053;-56
2023/06/24 05:07:19;;;;;;;12.35;11.15;;;33.10;56.80;;;;;;5031059;28;20105;-54
2023/06/24 05:09:48;;;;;;;12.90;11.13;;;33.10;56.90;;;;;;5032697;28;20028;-56
2023/06/24 05:12:14;;;;;;;12.32;11.15;;;33.30;56.60;;;;;;5031774;28;20022;-53
2023/06/24 05:14:40;;;;;;;13.23;11.48;;;33.30;56.40;;;;;;5033084;28;20032;-56
2023/06/24 05:17:06;;;;;;;12.68;10.93;;;33.20;56.70;;;;;;5033278;28;20487;-56
2023/06/24 05:19:32;;;;;;;12.93;11.68;;;33.30;56.90;;;;;;5033152;28;20473;-56
2023/06/24 05:21:58;;;;;;;12.90;11.57;;;33.80;56.60;;;;;;5032528;28;20097;-56
2023/06/24 05:24:23;;;;;;;13.45;11.88;;;34.00;55.80;;;;;;5030930;28;20017;-55
2023/06/24 05:26:51;;;;;;;13.57;12.18;;;34.00;55.30;;;;;;5031254;28;20359;-56
2023/06/24 05:29:17;;;;;;;13.63;12.20;;;34.00;55.00;;;;;;5031011;28;20055;-56
2023/06/24 05:31:43;;;;;;;15.20;13.48;;;33.80;55.30;;;;;;5030995;28;20518;-55
2023/06/24 05:34:09;;;;;;;13.10;11.90;;;33.40;55.80;;;;;;5030548;28;20025;-53
2023/06/24 05:36:35;;;;;;;13.48;12.18;;;33.00;56.30;;;;;;5031158;28;20030;-52
2023/06/24 05:39:01;;;;;;;14.38;12.98;;;32.70;56.70;;;;;;5032534;28;20025;-53
2023/06/24 05:41:27;;;;;;;14.35;12.13;;;32.40;57.20;;;;;;5032633;28;20068;-55
2023/06/24 05:44:10;;;;;;;14.85;12.77;;;32.00;57.60;;;;;;5032590;28;20397;-55
2023/06/24 05:46:36;;;;;;;14.27;12.88;;;31.60;58.40;;;;;;5032787;28;20512;-55
2023/06/24 05:49:01;;;;;;;15.40;13.70;;;31.30;59.30;;;;;;5032581;28;20072;-56
2023/06/24 05:51:27;;;;;;;15.10;13.60;;;30.90;60.10;;;;;;5032375;28;20021;-55
2023/06/24 05:53:53;;;;;;;15.20;13.60;;;30.60;61.00;;;;;;5032229;28;20477;-55
2023/06/24 05:56:21;;;;;;;15.50;13.75;;;30.30;61.40;;;;;;5032507;28;20039;-55
2023/06/24 05:58:46;;;;;;;15.90;14.20;;;30.00;61.90;;;;;;5031036;28;20024;-54
2023/06/24 06:01:12;;;;;;;15.73;14.13;;;29.70;62.60;;;;;;5032510;28;20029;-55
2023/06/24 06:03:38;;;;;;;16.33;14.63;;;29.50;63.10;;;;;;5032465;28;20018;-55
2023/06/24 06:06:04;;;;;;;15.93;14.23;;;29.30;63.70;;;;;;5031305;28;20172;-54
2023/06/24 06:08:30;;;;;;;15.80;14.20;;;29.10;64.30;;;;;;5032353;28;20382;-55
2023/06/24 06:10:55;;;;;;;15.63;14.00;;;29.00;64.70;;;;;;5032229;28;20075;-54
2023/06/24 06:13:21;;;;;;;17.08;15.30;;;28.90;65.50;;;;;;5032068;28;20052;-55
2023/06/24 06:15:46;;;;;;;17.05;14.82;;;28.80;66.70;;;;;;5031847;28;20033;-55
2023/06/24 06:18:12;;;;;;;16.25;14.65;;;28.70;66.40;;;;;;5031975;28;20032;-55
2023/06/24 06:20:38;;;;;;;16.70;15.00;;;28.60;66.70;;;;;;5031827;28;20028;-55
2023/06/24 06:23:03;;;;;;;16.65;14.95;;;28.50;67.20;;;;;;5031826;28;20064;-55
2023/06/24 06:25:29;;;;;;;16.10;14.38;;;28.40;67.50;;;;;;5031777;28;20076;-55
2023/06/24 06:27:54;;;;;;;17.58;15.77;;;28.50;67.60;;;;;;5031730;28;20397;-55
2023/06/24 06:30:20;;;;;;;16.58;14.88;;;28.50;67.70;;;;;;5031737;28;20108;-55
2023/06/24 06:32:46;;;;;;;16.20;14.32;;;28.60;68.00;;;;;;5031503;28;20099;-53
2023/06/24 06:35:11;;;;;;;16.17;14.52;;;28.70;68.20;;;;;;5031665;28;20036;-55
2023/06/24 06:37:37;;;;;;;14.63;13.13;;;28.80;68.30;;;;;;5030844;28;20014;-55
2023/06/24 06:40:03;;;;;;;17.40;13.77;;;28.80;68.50;;;;;;5031580;28;20481;-55
2023/06/24 06:42:29;;;;;;;14.70;13.02;;;28.80;68.30;;;;;;5031436;28;20017;-55
2023/06/24 06:44:55;;;;;;;14.25;12.75;;;28.80;68.50;;;;;;5032017;28;20140;-55
2023/06/24 06:47:21;;;;;;;15.10;13.55;;;28.90;68.50;;;;;;5031878;28;20133;-55
2023/06/24 06:49:46;;;;;;;15.77;14.18;;;28.80;68.50;;;;;;5031455;28;20511;-52
2023/06/24 06:52:12;;;;;;;16.67;14.98;;;28.90;68.50;;;;;;5031741;28;20021;-55
2023/06/24 06:54:38;;;;;;;16.50;14.82;;;28.80;68.40;;;;;;5031401;28;20094;-55
2023/06/24 06:57:04;;;;;;;16.13;14.52;;;28.90;68.70;;;;;;5031512;28;20021;-55
2023/06/24 06:59:31;;;;;;;16.23;14.52;;;28.90;68.80;;;;;;5031666;28;20064;-55
2023/06/24 07:01:56;;;;;;;15.77;14.18;;;28.90;69.10;;;;;;5031502;28;20488;-53
2023/06/24 07:04:22;;;;;;;14.85;13.40;;;28.80;68.90;;;;;;5031413;28;20118;-55
2023/06/24 07:06:48;;;;;;;15.18;13.68;;;28.80;69.00;;;;;;5031135;28;20052;-54
2023/06/24 07:09:15;;;;;;;15.30;13.77;;;28.90;69.20;;;;;;5031311;28;20046;-53
2023/06/24 07:11:41;;;;;;;16.88;14.27;;;28.80;69.40;;;;;;5031391;28;20317;-55
2023/06/24 07:14:07;;;;;;;14.75;13.25;;;28.80;69.60;;;;;;5031191;28;20053;-53
2023/06/24 07:16:33;;;;;;;14.55;13.02;;;28.80;69.70;;;;;;5031176;28;20053;-55
2023/06/24 07:18:58;;;;;;;17.05;14.45;;;28.80;69.60;;;;;;5031159;28;20100;-53
2023/06/24 07:21:24;;;;;;;15.40;13.57;;;28.90;69.60;;;;;;5031203;28;20026;-55
2023/06/24 07:23:50;;;;;;;14.88;13.43;;;28.90;69.60;;;;;;5031173;28;20051;-55
2023/06/24 07:26:16;;;;;;;14.68;13.18;;;28.90;69.60;;;;;;5031267;28;20134;-55
2023/06/24 07:28:41;;;;;;;15.57;13.63;;;29.00;69.40;;;;;;5030966;28;20029;-55
2023/06/24 07:31:07;;;;;;;14.75;13.23;;;29.00;69.60;;;;;;5031016;28;20114;-55
2023/06/24 07:33:33;;;;;;;13.45;12.15;;;29.00;69.90;;;;;;5030905;28;20029;-55
2023/06/24 07:35:58;;;;;;;15.85;14.25;;;29.10;70.10;;;;;;5031075;28;20096;-54
2023/06/24 07:38:24;;;;;;;15.60;14.00;;;29.00;69.90;;;;;;5031206;28;20490;-55
2023/06/24 07:40:49;;;;;;;15.57;13.98;;;29.10;69.80;;;;;;5031150;28;20025;-51
2023/06/24 07:43:15;;;;;;;16.25;14.55;;;29.10;70.00;;;;;;5030881;28;20030;-55
2023/06/24 07:45:41;;;;;;;16.70;14.38;;;29.00;69.80;;;;;;5030856;28;20411;-55
2023/06/24 07:48:07;;;;;;;16.17;14.48;;;29.00;70.00;;;;;;5031653;28;20063;-55
2023/06/24 07:50:34;;;;;;;15.18;13.65;;;28.90;70.10;;;;;;5033450;28;20037;-53
2023/06/24 07:53:00;;;;;;;16.27;14.65;;;28.90;70.20;;;;;;5034461;28;20033;-55
2023/06/24 07:55:25;;;;;;;16.15;14.32;;;28.90;70.30;;;;;;5032906;28;20025;-54
2023/06/24 07:57:51;;;;;;;16.08;14.48;;;28.80;70.40;;;;;;5032620;28;20029;-53
2023/06/24 08:00:17;;;;;;;16.25;14.32;;;28.80;70.40;;;;;;5033942;28;20018;-55
2023/06/24 08:02:43;;;;;;;16.00;14.45;;;28.80;70.50;;;;;;5034046;28;20022;-55
2023/06/24 08:05:09;;;;;;;16.23;14.73;;;28.80;70.70;;;;;;5034239;28;20057;-55
2023/06/24 08:07:35;;;;;;;16.23;14.73;;;28.90;70.90;;;;;;5034370;28;20034;-55
2023/06/24 08:10:01;;;;;;;16.50;14.27;;;28.80;70.80;;;;;;5032859;28;20060;-54
2023/06/24 08:12:26;;;;;;;16.25;14.55;;;28.90;70.90;;;;;;5031236;28;20027;-55
2023/06/24 08:14:52;;;;;;;16.38;14.68;;;28.80;71.00;;;;;;5031617;28;20507;-53
2023/06/24 08:17:18;;;;;;;17.00;15.23;;;28.80;71.20;;;;;;5031821;28;20028;-53
2023/06/24 08:19:43;;;;;;;17.52;15.77;;;28.90;71.40;;;;;;5033899;28;20132;-55
2023/06/24 08:22:09;;;;;;;15.98;14.30;;;28.80;71.30;;;;;;5034016;28;20065;-55
2023/06/24 08:24:34;;;;;;;15.65;14.05;;;28.90;71.30;;;;;;5033600;28;20481;-55
2023/06/24 08:27:00;;;;;;;16.35;14.65;;;28.90;71.50;;;;;;5033879;28;20602;-55
2023/06/24 08:29:26;;;;;;;15.93;14.43;;;29.00;71.40;;;;;;5034004;28;20033;-55
2023/06/24 08:31:51;;;;;;;16.98;15.27;;;29.00;71.40;;;;;;5033918;28;20048;-54
2023/06/24 08:34:17;;;;;;;16.15;14.63;;;29.00;71.10;;;;;;5033629;28;20485;-55
2023/06/24 08:36:42;;;;;;;15.90;14.30;;;29.10;71.30;;;;;;5033032;28;20030;-55
2023/06/24 08:39:08;;;;;;;15.80;14.20;;;29.10;71.50;;;;;;5033616;28;20029;-54
2023/06/24 08:41:34;;;;;;;16.15;14.55;;;29.10;71.60;;;;;;5033580;28;20485;-54
2023/06/24 08:43:59;;;;;;;19.02;16.73;;;29.20;71.80;;;;;;5033535;28;20794;-53
2023/06/24 08:46:26;;;;;;;18.02;16.15;;;29.20;71.90;;;;;;5033614;28;20529;-54
2023/06/24 08:49:16;;;;;;;17.88;16.15;;;29.20;71.30;;;;;;5033741;28;20025;-55
2023/06/24 08:51:46;;;;;;;17.55;15.75;;;29.30;71.30;;;;;;5032422;28;20026;-55
2023/06/24 08:54:14;;;;;;;18.08;15.73;;;29.30;71.10;;;;;;5033772;28;20116;-55
2023/06/24 08:56:41;;;;;;;18.20;16.42;;;29.20;71.00;;;;;;5033682;28;20041;-53
2023/06/24 08:59:07;;;;;;;18.65;16.80;;;29.20;71.40;;;;;;5033541;28;20092;-55
2023/06/24 09:01:32;;;;;;;18.88;16.52;;;29.10;71.40;;;;;;5032913;28;20422;-55
2023/06/24 09:03:58;;;;;;;18.55;16.73;;;29.00;71.50;;;;;;5033150;28;20018;-55
2023/06/24 09:06:23;;;;;;;18.15;16.35;;;29.00;71.50;;;;;;5033599;28;20531;-55
2023/06/24 09:08:56;;;;;;;20.10;18.00;;;28.90;71.90;;;;;;5033326;28;20037;-55
2023/06/24 09:11:26;;;;;;;19.80;17.67;;;28.80;71.60;;;;;;5033296;28;20041;-55
2023/06/24 09:13:59;;;;;;;19.17;17.27;;;28.70;71.80;;;;;;5033391;28;20076;-55
2023/06/24 09:16:26;;;;;;;20.00;17.90;;;28.70;72.10;;;;;;5033272;28;20144;-54
2023/06/24 09:18:53;;;;;;;19.67;17.67;;;28.60;71.80;;;;;;5033170;28;20025;-52
2023/06/24 09:21:26;;;;;;;18.05;16.23;;;28.50;71.90;;;;;;5033351;28;20496;-55
2023/06/24 09:23:56;;;;;;;18.42;16.58;;;28.50;72.80;;;;;;5033310;28;20060;-55
2023/06/24 09:26:26;;;;;;;18.70;16.88;;;28.50;73.30;;;;;;5033110;28;20584;-55
2023/06/24 09:28:52;;;;;;;18.45;16.65;;;28.50;73.50;;;;;;5033480;28;20046;-55
2023/06/24 09:31:18;;;;;;;19.65;17.58;;;28.40;73.80;;;;;;5032254;28;20084;-54
2023/06/24 09:33:44;;;;;;;20.73;17.67;;;28.40;73.50;;;;;;5032920;28;20091;-53
2023/06/24 09:36:14;;;;;;;21.20;19.10;;;28.40;73.80;;;;;;5032772;28;20064;-55
2023/06/24 09:38:44;;;;;;;20.92;18.73;;;28.30;74.00;;;;;;5033125;28;20327;-55
2023/06/24 09:41:11;;;;;;;20.10;18.10;;;28.30;74.00;;;;;;5032710;28;20076;-55
2023/06/24 09:43:41;;;;;;;21.60;19.30;;;28.30;74.20;;;;;;5032960;28;20477;-55
2023/06/24 09:46:07;;;;;;;21.23;19.13;;;28.30;74.70;;;;;;5032856;28;20109;-55
2023/06/24 09:48:36;;;;;;;21.88;19.58;;;28.20;74.90;;;;;;5032493;28;20451;-55
2023/06/24 09:51:05;;;;;;;21.55;19.45;;;28.30;75.00;;;;;;5032503;28;20030;-56
2023/06/24 09:53:32;;;;;;;21.38;19.20;;;28.30;75.00;;;;;;5032368;28;20025;-55
2023/06/24 09:56:01;;;;;;;21.85;19.45;;;28.40;74.90;;;;;;5032193;28;20032;-55
2023/06/24 09:58:32;;;;;;;19.85;17.83;;;28.40;74.40;;;;;;5032577;28;20026;-55
2023/06/24 10:01:01;;;;;;;19.80;17.77;;;28.50;74.50;;;;;;5032490;28;20377;-54
2023/06/24 10:03:28;;;;;;;20.58;18.58;;;28.60;74.50;;;;;;5032223;28;20094;-55
2023/06/24 10:05:54;;;;;;;21.20;19.02;;;28.70;74.20;;;;;;5032038;28;20045;-55
2023/06/24 10:08:20;;;;;;;19.33;17.42;;;28.70;74.00;;;;;;5032162;28;20056;-55
2023/06/24 10:10:46;;;;;;;19.67;17.67;;;28.80;73.70;;;;;;5032361;28;20028;-55
2023/06/24 10:13:12;;;;;;;19.10;16.73;;;28.80;73.20;;;;;;5031660;28;20036;-55
2023/06/24 10:15:37;;;;;;;18.20;16.30;;;28.90;73.00;;;;;;5031770;28;20493;-55
2023/06/24 10:18:23;;;;;;;18.42;16.55;;;28.90;72.90;;;;;;5031956;28;20025;-52
2023/06/24 10:20:49;;;;;;;16.40;14.80;;;29.00;72.80;;;;;;5031694;28;20049;-55
2023/06/24 10:23:14;;;;;;;16.50;14.80;;;29.00;72.30;;;;;;5032015;28;20134;-55
2023/06/24 10:25:40;;;;;;;14.18;12.73;;;29.00;71.70;;;;;;5031785;28;20048;-54
2023/06/24 10:28:06;;;;;;;13.73;12.32;;;29.00;71.10;;;;;;5031750;28;20026;-55
2023/06/24 10:30:33;;;;;;;13.18;11.75;;;29.00;70.30;;;;;;5031975;28;20071;-54
2023/06/24 10:32:58;;;;;;;12.93;11.55;;;28.90;70.00;;;;;;5031982;28;20025;-55
2023/06/24 10:35:31;;;;;;;13.80;12.48;;;28.90;69.90;;;;;;5031569;28;20370;-53
2023/06/24 10:37:59;;;;;;;14.27;12.77;;;28.90;70.30;;;;;;5031910;28;20029;-55
2023/06/24 10:40:54;;;;;;;15.15;13.13;;;29.00;70.80;;;;;;5030672;28;20057;-55
2023/06/24 10:43:27;;;;;;;14.55;12.60;;;29.00;70.80;;;;;;5022595;28;20037;-55
2023/06/24 10:45:58;;;;;;;13.43;12.02;;;29.10;71.10;;;;;;5031492;28;20493;-55
2023/06/24 10:48:23;;;;;;;;;;;29.10;71.20;;;;;;5031902;28;20040;-55
2023/06/24 10:50:49;;;;;;;11.20;9.85;;;29.20;71.20;;;;;;5031482;28;19972;-55
2023/06/24 10:53:18;;;;;;;11.05;9.30;;;29.20;70.60;;;;;;5029809;28;20028;-55
2023/06/24 10:55:44;;;;;;;10.38;9.38;;;29.20;70.30;;;;;;5030257;28;20025;-53
2023/06/24 10:58:12;;;;;;;10.35;9.30;;;29.30;70.10;;;;;;5030357;28;20026;-55
2023/06/24 11:00:38;;;;;;;9.57;8.23;;;29.30;70.00;;;;;;5031265;28;20099;-55
2023/06/24 11:03:11;;;;;;;9.63;6.10;;;29.30;69.80;;;;;;5030987;28;20030;-54
2023/06/24 11:05:45;;;;;;;7.07;6.28;;;29.30;69.40;;;;;;5030751;28;20045;-55
2023/06/24 11:08:11;;;;;;;8.27;6.15;;;29.30;69.30;;;;;;5031119;28;20043;-55
2023/06/24 11:10:47;;;;;;;6.88;5.38;;;29.30;69.30;;;;;;5031095;28;20274;-55
2023/06/24 11:13:13;;;;;;;6.22;5.43;;;29.20;69.20;;;;;;5031084;28;20033;-55
2023/06/24 11:15:43;;;;;;;7.30;4.88;;;29.20;69.10;;;;;;5031316;28;20029;-55
2023/06/24 11:18:10;;;;;;;6.17;4.70;;;29.10;69.20;;;;;;5031033;28;20105;-55
2023/06/24 11:20:39;;;;;;;6.50;4.95;;;29.10;69.50;;;;;;5031305;28;20038;-55
2023/06/24 11:23:10;;;;;;;6.80;4.78;;;29.10;69.60;;;;;;5031811;28;20030;-54
2023/06/24 11:25:40;;;;;;;5.20;3.97;;;29.20;69.50;;;;;;5035498;28;20547;-55
2023/06/24 11:28:16;;;;;;;5.63;4.47;;;29.10;69.40;;;;;;5035058;28;20030;-55
2023/06/24 11:30:42;;;;;;;4.93;4.30;;;29.10;69.20;;;;;;5035263;28;20543;-55
2023/06/24 11:33:08;;;;;;;5.30;4.18;;;29.10;69.50;;;;;;5035274;28;20029;-55
2023/06/24 11:35:36;;;;;;;5.03;4.30;;;29.10;69.40;;;;;;5035013;28;20061;-55
2023/06/24 11:38:01;;;;;;;5.75;4.10;;;29.10;69.60;;;;;;5035197;28;20531;-55
2023/06/24 11:40:27;;;;;;;4.82;3.90;;;29.00;69.80;;;;;;5034824;28;20022;-55
2023/06/24 11:42:53;;;;;;;8.10;4.38;;;29.00;69.90;;;;;;5034886;28;20476;-55
2023/06/24 11:45:22;;;;;;;6.60;4.45;;;29.00;70.10;;;;;;5034781;28;20033;-55
2023/06/24 11:47:52;;;;;;;6.60;4.10;;;29.00;70.10;;;;;;5032197;28;20037;-55
2023/06/24 11:50:18;;;;;;;5.28;4.20;;;28.90;70.10;;;;;;5034861;28;20037;-55
2023/06/24 11:52:48;;;;;;;6.00;3.92;;;28.90;70.30;;;;;;5034717;28;20397;-55
2023/06/24 11:55:23;;;;;;;4.78;4.05;;;28.90;70.50;;;;;;5034654;28;20017;-54
2023/06/24 11:58:02;;;;;;;5.80;3.95;;;29.00;70.50;;;;;;5034812;28;20372;-55
2023/06/24 12:00:34;;;;;;;6.60;4.43;;;29.00;70.50;;;;;;5034303;28;20493;-55
2023/06/24 12:03:02;;;;;;;4.50;3.63;;;28.90;70.50;;;;;;5034587;28;20045;-53
2023/06/24 12:05:36;;;;;;;4.60;3.47;;;28.90;70.40;;;;;;5034000;28;20049;-55
2023/06/24 12:08:13;;;;;;;6.00;3.70;;;28.90;70.20;;;;;;5034685;28;20041;-55
2023/06/24 12:10:39;;;;;;;4.63;3.60;;;28.90;70.20;;;;;;5034649;28;20029;-55
2023/06/24 12:13:06;;;;;;;4.38;3.92;;;28.90;70.30;;;;;;5034049;28;20076;-55
2023/06/24 12:15:32;;;;;;;5.13;3.83;;;28.90;70.20;;;;;;5031900;28;20076;-55
2023/06/24 12:17:58;;;;;;;4.57;3.85;;;28.90;70.10;;;;;;5032756;28;20422;-55
2023/06/24 12:20:25;;;;;;;7.05;3.78;;;28.90;70.10;;;;;;5034190;28;20033;-55
2023/06/24 12:22:50;;;;;;;4.25;3.60;;;28.90;70.00;;;;;;5034125;28;20026;-55
2023/06/24 12:25:17;;;;;;;6.30;3.72;;;28.90;69.70;;;;;;5034283;28;20389;-55
2023/06/24 12:27:44;;;;;;;5.80;3.47;;;29.00;69.80;;;;;;5033400;28;20037;-54
2023/06/24 12:30:11;;;;;;;5.10;3.70;;;29.00;69.80;;;;;;5032679;28;20481;-55
2023/06/24 12:32:37;;;;;;;3.90;3.50;;;29.00;69.70;;;;;;5032837;28;20108;-55